sensor_id;sensor_type;location;lat;lon;timestamp;temperature;humidity
71177;DHT22;58877;51.992;4.504;2023-03-01T00:00:23;2.19;81.13
71177;DHT22;58877;51.992;4.504;2023-03-01T00:02:51;2.20;81.12
71177;DHT22;58877;51.992;4.504;2023-03-01T00:05:17;2.16;81.33
71177;DHT22;58877;51.992;4.504;2023-03-01T00:07:43;2.19;81.35
71177;DHT22;58877;51.992;4.504;2023-03-01T00:10:09;2.17;81.41
71177;DHT22;58877;51.992;4.504;2023-03-01T00:12:35;2.22;81.72
71177;DHT22;58877;51.992;4.504;2023-03-01T00:15:01;2.17;82.03
71177;DHT22;58877;51.992;4.504;2023-03-01T00:17:27;2.07;82.20
71177;DHT22;58877;51.992;4.504;2023-03-01T00:19:53;2.10;82.31
71177;DHT22;58877;51.992;4.504;2023-03-01T00:22:19;2.17;82.20
71177;DHT22;58877;51.992;4.504;2023-03-01T00:24:45;2.22;82.01
71177;DHT22;58877;51.992;4.504;2023-03-01T00:27:10;2.22;82.22
71177;DHT22;58877;51.992;4.504;2023-03-01T00:29:36;2.23;82.40
71177;DHT22;58877;51.992;4.504;2023-03-01T00:32:01;2.16;82.72
71177;DHT22;58877;51.992;4.504;2023-03-01T00:34:27;2.16;82.98
71177;DHT22;58877;51.992;4.504;2023-03-01T00:36:52;2.14;82.96
71177;DHT22;58877;51.992;4.504;2023-03-01T00:39:18;2.09;83.01
71177;DHT22;58877;51.992;4.504;2023-03-01T00:41:44;2.10;82.93
71177;DHT22;58877;51.992;4.504;2023-03-01T00:44:10;2.05;82.94
71177;DHT22;58877;51.992;4.504;2023-03-01T00:46:38;2.07;82.99
71177;DHT22;58877;51.992;4.504;2023-03-01T00:49:04;2.05;82.59
71177;DHT22;58877;51.992;4.504;2023-03-01T00:51:30;2.07;82.66
71177;DHT22;58877;51.992;4.504;2023-03-01T00:53:58;1.99;82.71
71177;DHT22;58877;51.992;4.504;2023-03-01T00:56:24;1.93;82.67
71177;DHT22;58877;51.992;4.504;2023-03-01T00:58:50;1.86;82.92
71177;DHT22;58877;51.992;4.504;2023-03-01T01:01:18;1.79;82.96
71177;DHT22;58877;51.992;4.504;2023-03-01T01:06:18;1.87;82.57
71177;DHT22;58877;51.992;4.504;2023-03-01T01:08:43;1.89;82.24
71177;DHT22;58877;51.992;4.504;2023-03-01T01:11:10;1.98;81.96
71177;DHT22;58877;51.992;4.504;2023-03-01T01:13:37;1.90;82.13
71177;DHT22;58877;51.992;4.504;2023-03-01T01:16:04;1.86;82.52
71177;DHT22;58877;51.992;4.504;2023-03-01T01:18:30;1.83;82.88
71177;DHT22;58877;51.992;4.504;2023-03-01T01:20:55;1.78;82.65
71177;DHT22;58877;51.992;4.504;2023-03-01T01:23:21;1.83;82.72
71177;DHT22;58877;51.992;4.504;2023-03-01T01:25:46;1.83;82.62
71177;DHT22;58877;51.992;4.504;2023-03-01T01:28:12;1.79;82.77
71177;DHT22;58877;51.992;4.504;2023-03-01T01:30:38;1.78;82.78
71177;DHT22;58877;51.992;4.504;2023-03-01T01:33:03;1.75;82.67
71177;DHT22;58877;51.992;4.504;2023-03-01T01:35:29;1.78;82.71
71177;DHT22;58877;51.992;4.504;2023-03-01T01:37:54;1.75;83.00
71177;DHT22;58877;51.992;4.504;2023-03-01T01:40:20;1.78;83.24
71177;DHT22;58877;51.992;4.504;2023-03-01T01:42:45;1.72;83.03
71177;DHT22;58877;51.992;4.504;2023-03-01T01:48:10;1.72;82.99
71177;DHT22;58877;51.992;4.504;2023-03-01T01:50:39;1.73;83.15
71177;DHT22;58877;51.992;4.504;2023-03-01T01:53:16;1.71;83.61
71177;DHT22;58877;51.992;4.504;2023-03-01T01:55:52;1.72;83.83
71177;DHT22;58877;51.992;4.504;2023-03-01T01:58:21;1.71;83.70
71177;DHT22;58877;51.992;4.504;2023-03-01T02:00:48;1.73;84.01
71177;DHT22;58877;51.992;4.504;2023-03-01T02:03:25;1.69;84.16
71177;DHT22;58877;51.992;4.504;2023-03-01T02:06:06;1.68;83.96
71177;DHT22;58877;51.992;4.504;2023-03-01T02:08:36;1.62;83.97
71177;DHT22;58877;51.992;4.504;2023-03-01T02:11:03;1.55;84.02
71177;DHT22;58877;51.992;4.504;2023-03-01T02:13:34;1.49;84.09
71177;DHT22;58877;51.992;4.504;2023-03-01T02:16:24;1.45;84.31
71177;DHT22;58877;51.992;4.504;2023-03-01T02:18:51;1.41;84.37
71177;DHT22;58877;51.992;4.504;2023-03-01T02:24:08;1.47;84.63
71177;DHT22;58877;51.992;4.504;2023-03-01T02:26:41;1.52;84.83
71177;DHT22;58877;51.992;4.504;2023-03-01T02:29:08;1.48;84.58
71177;DHT22;58877;51.992;4.504;2023-03-01T02:31:34;1.42;84.41
71177;DHT22;58877;51.992;4.504;2023-03-01T02:34:18;1.37;84.15
71177;DHT22;58877;51.992;4.504;2023-03-01T02:36:48;1.42;84.63
71177;DHT22;58877;51.992;4.504;2023-03-01T02:39:21;1.45;85.00
71177;DHT22;58877;51.992;4.504;2023-03-01T02:41:51;1.42;84.79
71177;DHT22;58877;51.992;4.504;2023-03-01T02:44:17;1.38;84.97
71177;DHT22;58877;51.992;4.504;2023-03-01T02:46:49;1.34;85.30
71177;DHT22;58877;51.992;4.504;2023-03-01T02:49:21;1.34;85.45
71177;DHT22;58877;51.992;4.504;2023-03-01T02:52:54;1.34;85.24
71177;DHT22;58877;51.992;4.504;2023-03-01T02:54:58;1.32;85.50
71177;DHT22;58877;51.992;4.504;2023-03-01T02:57:28;1.37;85.52
71177;DHT22;58877;51.992;4.504;2023-03-01T03:00:03;1.27;85.61
71177;DHT22;58877;51.992;4.504;2023-03-01T03:02:33;1.25;85.52
71177;DHT22;58877;51.992;4.504;2023-03-01T03:07:35;1.27;85.88
71177;DHT22;58877;51.992;4.504;2023-03-01T03:10:01;1.27;85.78
71177;DHT22;58877;51.992;4.504;2023-03-01T03:12:27;1.28;85.65
71177;DHT22;58877;51.992;4.504;2023-03-01T03:14:53;1.27;85.55
71177;DHT22;58877;51.992;4.504;2023-03-01T03:17:18;1.21;85.21
71177;DHT22;58877;51.992;4.504;2023-03-01T03:19:44;1.18;85.43
71177;DHT22;58877;51.992;4.504;2023-03-01T03:22:13;1.21;85.60
71177;DHT22;58877;51.992;4.504;2023-03-01T03:24:39;1.17;85.67
71177;DHT22;58877;51.992;4.504;2023-03-01T03:27:06;1.14;85.53
71177;DHT22;58877;51.992;4.504;2023-03-01T03:29:31;1.13;85.54
71177;DHT22;58877;51.992;4.504;2023-03-01T03:31:57;1.17;85.81
71177;DHT22;58877;51.992;4.504;2023-03-01T03:34:23;1.11;85.47
71177;DHT22;58877;51.992;4.504;2023-03-01T03:36:58;1.07;85.42
71177;DHT22;58877;51.992;4.504;2023-03-01T03:39:26;0.98;85.39
71177;DHT22;58877;51.992;4.504;2023-03-01T03:42:00;0.94;85.70
71177;DHT22;58877;51.992;4.504;2023-03-01T03:44:26;0.93;85.62
71177;DHT22;58877;51.992;4.504;2023-03-01T03:46:51;0.93;85.79
71177;DHT22;58877;51.992;4.504;2023-03-01T03:49:17;0.91;85.40
71177;DHT22;58877;51.992;4.504;2023-03-01T03:51:45;0.97;85.36
71177;DHT22;58877;51.992;4.504;2023-03-01T03:54:10;1.03;85.83
71177;DHT22;58877;51.992;4.504;2023-03-01T03:56:36;0.98;85.10
71177;DHT22;58877;51.992;4.504;2023-03-01T03:59:01;0.88;85.14
71177;DHT22;58877;51.992;4.504;2023-03-01T04:01:27;0.77;84.26
71177;DHT22;58877;51.992;4.504;2023-03-01T04:03:52;0.62;84.02
71177;DHT22;58877;51.992;4.504;2023-03-01T04:06:20;0.53;84.07
71177;DHT22;58877;51.992;4.504;2023-03-01T04:08:46;0.56;84.21
71177;DHT22;58877;51.992;4.504;2023-03-01T04:11:11;0.53;84.17
71177;DHT22;58877;51.992;4.504;2023-03-01T04:13:55;0.52;84.42
71177;DHT22;58877;51.992;4.504;2023-03-01T04:16:21;0.72;85.49
71177;DHT22;58877;51.992;4.504;2023-03-01T04:18:47;0.77;85.32
71177;DHT22;58877;51.992;4.504;2023-03-01T04:21:13;0.77;85.38
71177;DHT22;58877;51.992;4.504;2023-03-01T04:23:39;0.83;85.83
71177;DHT22;58877;51.992;4.504;2023-03-01T04:26:06;0.83;86.45
71177;DHT22;58877;51.992;4.504;2023-03-01T04:28:38;0.80;87.16
71177;DHT22;58877;51.992;4.504;2023-03-01T04:31:08;0.83;86.87
71177;DHT22;58877;51.992;4.504;2023-03-01T04:33:53;0.84;86.95
71177;DHT22;58877;51.992;4.504;2023-03-01T04:36:25;0.84;86.71
71177;DHT22;58877;51.992;4.504;2023-03-01T04:38:51;0.83;86.64
71177;DHT22;58877;51.992;4.504;2023-03-01T04:41:20;0.74;86.45
71177;DHT22;58877;51.992;4.504;2023-03-01T04:43:46;0.74;86.50
71177;DHT22;58877;51.992;4.504;2023-03-01T04:46:15;0.74;86.32
71177;DHT22;58877;51.992;4.504;2023-03-01T04:48:43;0.59;86.72
71177;DHT22;58877;51.992;4.504;2023-03-01T04:51:09;0.54;87.01
71177;DHT22;58877;51.992;4.504;2023-03-01T04:53:38;0.53;87.05
71177;DHT22;58877;51.992;4.504;2023-03-01T04:56:05;0.48;87.01
71177;DHT22;58877;51.992;4.504;2023-03-01T04:58:31;0.40;87.30
71177;DHT22;58877;51.992;4.504;2023-03-01T05:00:56;0.42;87.30
71177;DHT22;58877;51.992;4.504;2023-03-01T05:03:22;0.40;87.30
71177;DHT22;58877;51.992;4.504;2023-03-01T05:05:50;0.39;87.26
71177;DHT22;58877;51.992;4.504;2023-03-01T05:08:17;0.43;87.25
71177;DHT22;58877;51.992;4.504;2023-03-01T05:10:48;0.50;86.93
71177;DHT22;58877;51.992;4.504;2023-03-01T05:13:14;0.62;87.20
71177;DHT22;58877;51.992;4.504;2023-03-01T05:15:58;0.57;86.78
71177;DHT22;58877;51.992;4.504;2023-03-01T05:18:26;0.56;86.65
71177;DHT22;58877;51.992;4.504;2023-03-01T05:20:54;0.54;86.63
71177;DHT22;58877;51.992;4.504;2023-03-01T05:23:23;0.60;86.51
71177;DHT22;58877;51.992;4.504;2023-03-01T05:25:49;0.54;86.27
71177;DHT22;58877;51.992;4.504;2023-03-01T05:28:19;0.48;86.11
71177;DHT22;58877;51.992;4.504;2023-03-01T05:30:46;0.46;86.22
71177;DHT22;58877;51.992;4.504;2023-03-01T05:33:11;0.48;86.10
71177;DHT22;58877;51.992;4.504;2023-03-01T05:35:42;0.39;85.98
71177;DHT22;58877;51.992;4.504;2023-03-01T05:38:12;0.33;85.88
71177;DHT22;58877;51.992;4.504;2023-03-01T05:40:46;0.28;85.85
71177;DHT22;58877;51.992;4.504;2023-03-01T05:43:14;0.46;86.08
71177;DHT22;58877;51.992;4.504;2023-03-01T05:45:41;0.46;85.62
71177;DHT22;58877;51.992;4.504;2023-03-01T05:48:08;0.40;85.80
71177;DHT22;58877;51.992;4.504;2023-03-01T05:50:37;0.35;85.74
71177;DHT22;58877;51.992;4.504;2023-03-01T05:53:07;0.43;85.88
71177;DHT22;58877;51.992;4.504;2023-03-01T05:55:35;0.35;85.56
71177;DHT22;58877;51.992;4.504;2023-03-01T05:58:04;0.32;85.68
71177;DHT22;58877;51.992;4.504;2023-03-01T06:00:31;0.26;85.84
71177;DHT22;58877;51.992;4.504;2023-03-01T06:02:59;0.35;85.81
71177;DHT22;58877;51.992;4.504;2023-03-01T06:05:26;0.35;85.65
71177;DHT22;58877;51.992;4.504;2023-03-01T06:07:52;0.35;85.40
71177;DHT22;58877;51.992;4.504;2023-03-01T06:10:20;0.30;85.19
71177;DHT22;58877;51.992;4.504;2023-03-01T06:12:47;0.19;85.06
71177;DHT22;58877;51.992;4.504;2023-03-01T06:15:15;0.26;85.30
71177;DHT22;58877;51.992;4.504;2023-03-01T06:17:43;0.33;85.31
71177;DHT22;58877;51.992;4.504;2023-03-01T06:20:16;0.52;85.05
71177;DHT22;58877;51.992;4.504;2023-03-01T06:22:42;0.52;84.58
71177;DHT22;58877;51.992;4.504;2023-03-01T06:25:09;0.45;84.48
71177;DHT22;58877;51.992;4.504;2023-03-01T06:27:35;0.46;84.29
71177;DHT22;58877;51.992;4.504;2023-03-01T06:30:02;0.39;84.31
71177;DHT22;58877;51.992;4.504;2023-03-01T06:32:27;0.26;84.35
71177;DHT22;58877;51.992;4.504;2023-03-01T06:34:53;0.13;84.42
71177;DHT22;58877;51.992;4.504;2023-03-01T06:37:18;0.05;84.47
71177;DHT22;58877;51.992;4.504;2023-03-01T06:39:44;0.10;84.55
71177;DHT22;58877;51.992;4.504;2023-03-01T06:42:09;0.02;84.46
71177;DHT22;58877;51.992;4.504;2023-03-01T06:44:36;-0.03;84.72
71177;DHT22;58877;51.992;4.504;2023-03-01T06:47:02;-0.02;84.75
71177;DHT22;58877;51.992;4.504;2023-03-01T06:49:29;-0.06;84.79
71177;DHT22;58877;51.992;4.504;2023-03-01T06:51:56;-0.06;84.69
71177;DHT22;58877;51.992;4.504;2023-03-01T06:54:21;-0.05;84.68
71177;DHT22;58877;51.992;4.504;2023-03-01T06:56:49;-0.05;84.64
71177;DHT22;58877;51.992;4.504;2023-03-01T06:59:16;-0.02;84.58
71177;DHT22;58877;51.992;4.504;2023-03-01T07:01:42;0.02;84.57
71177;DHT22;58877;51.992;4.504;2023-03-01T07:04:09;0.02;84.52
71177;DHT22;58877;51.992;4.504;2023-03-01T07:06:34;0.19;84.41
71177;DHT22;58877;51.992;4.504;2023-03-01T07:09:00;0.20;84.14
71177;DHT22;58877;51.992;4.504;2023-03-01T07:11:26;0.22;84.17
71177;DHT22;58877;51.992;4.504;2023-03-01T07:13:51;0.25;84.20
71177;DHT22;58877;51.992;4.504;2023-03-01T07:16:20;0.26;83.97
71177;DHT22;58877;51.992;4.504;2023-03-01T07:18:46;0.30;83.95
71177;DHT22;58877;51.992;4.504;2023-03-01T07:21:13;0.38;84.20
71177;DHT22;58877;51.992;4.504;2023-03-01T07:23:39;0.46;84.34
71177;DHT22;58877;51.992;4.504;2023-03-01T07:26:05;0.60;84.39
71177;DHT22;58877;51.992;4.504;2023-03-01T07:28:31;0.72;84.26
71177;DHT22;58877;51.992;4.504;2023-03-01T07:31:05;0.85;84.28
71177;DHT22;58877;51.992;4.504;2023-03-01T07:33:32;1.01;84.32
71177;DHT22;58877;51.992;4.504;2023-03-01T07:35:59;1.15;84.19
71177;DHT22;58877;51.992;4.504;2023-03-01T07:38:26;1.18;84.12
71177;DHT22;58877;51.992;4.504;2023-03-01T07:40:53;1.21;84.22
71177;DHT22;58877;51.992;4.504;2023-03-01T07:43:19;1.24;84.45
71177;DHT22;58877;51.992;4.504;2023-03-01T07:45:46;1.37;84.52
71177;DHT22;58877;51.992;4.504;2023-03-01T07:48:11;1.47;84.09
71177;DHT22;58877;51.992;4.504;2023-03-01T07:50:37;1.44;83.98
71177;DHT22;58877;51.992;4.504;2023-03-01T07:53:03;1.51;84.07
71177;DHT22;58877;51.992;4.504;2023-03-01T07:55:29;1.48;84.26
71177;DHT22;58877;51.992;4.504;2023-03-01T07:57:54;1.56;84.15
71177;DHT22;58877;51.992;4.504;2023-03-01T08:00:20;1.72;84.51
71177;DHT22;58877;51.992;4.504;2023-03-01T08:02:46;1.85;84.14
71177;DHT22;58877;51.992;4.504;2023-03-01T08:05:11;1.98;84.10
71177;DHT22;58877;51.992;4.504;2023-03-01T08:07:38;1.93;83.46
71177;DHT22;58877;51.992;4.504;2023-03-01T08:10:04;1.98;83.46
71177;DHT22;58877;51.992;4.504;2023-03-01T08:12:31;2.03;83.31
71177;DHT22;58877;51.992;4.504;2023-03-01T08:14:57;2.24;83.29
71177;DHT22;58877;51.992;4.504;2023-03-01T08:17:23;2.37;82.96
71177;DHT22;58877;51.992;4.504;2023-03-01T08:19:52;2.50;82.80
71177;DHT22;58877;51.992;4.504;2023-03-01T08:22:18;2.57;82.09
71177;DHT22;58877;51.992;4.504;2023-03-01T08:24:43;2.73;82.24
71177;DHT22;58877;51.992;4.504;2023-03-01T08:27:11;2.89;82.05
71177;DHT22;58877;51.992;4.504;2023-03-01T08:29:38;3.05;81.61
71177;DHT22;58877;51.992;4.504;2023-03-01T08:32:04;3.13;80.61
71177;DHT22;58877;51.992;4.504;2023-03-01T08:34:33;3.13;80.03
71177;DHT22;58877;51.992;4.504;2023-03-01T08:37:00;3.19;80.14
71177;DHT22;58877;51.992;4.504;2023-03-01T08:39:27;3.23;79.14
71177;DHT22;58877;51.992;4.504;2023-03-01T08:41:54;3.25;79.36
71177;DHT22;58877;51.992;4.504;2023-03-01T08:44:20;3.40;79.42
71177;DHT22;58877;51.992;4.504;2023-03-01T08:46:48;3.53;78.88
71177;DHT22;58877;51.992;4.504;2023-03-01T08:49:17;3.67;78.86
71177;DHT22;58877;51.992;4.504;2023-03-01T08:51:45;3.79;78.86
71177;DHT22;58877;51.992;4.504;2023-03-01T08:54:13;3.94;78.39
71177;DHT22;58877;51.992;4.504;2023-03-01T08:56:40;4.00;77.85
71177;DHT22;58877;51.992;4.504;2023-03-01T08:59:07;4.00;76.68
71177;DHT22;58877;51.992;4.504;2023-03-01T09:01:33;4.04;76.21
71177;DHT22;58877;51.992;4.504;2023-03-01T09:03:59;4.13;75.15
71177;DHT22;58877;51.992;4.504;2023-03-01T09:06:25;4.14;75.31
71177;DHT22;58877;51.992;4.504;2023-03-01T09:08:52;4.03;72.71
71177;DHT22;58877;51.992;4.504;2023-03-01T09:11:22;4.13;73.19
71177;DHT22;58877;51.992;4.504;2023-03-01T09:13:49;4.24;71.18
71177;DHT22;58877;51.992;4.504;2023-03-01T09:16:19;4.33;71.82
71177;DHT22;58877;51.992;4.504;2023-03-01T09:18:52;4.40;71.48
71177;DHT22;58877;51.992;4.504;2023-03-01T09:21:32;4.33;70.05
71177;DHT22;58877;51.992;4.504;2023-03-01T09:24:05;4.47;68.98
71177;DHT22;58877;51.992;4.504;2023-03-01T09:26:35;4.45;68.42
71177;DHT22;58877;51.992;4.504;2023-03-01T09:29:21;4.62;68.77
71177;DHT22;58877;51.992;4.504;2023-03-01T09:31:48;4.71;68.37
71177;DHT22;58877;51.992;4.504;2023-03-01T09:34:14;4.83;68.58
71177;DHT22;58877;51.992;4.504;2023-03-01T09:36:41;4.83;67.32
71177;DHT22;58877;51.992;4.504;2023-03-01T09:39:07;4.79;65.67
71177;DHT22;58877;51.992;4.504;2023-03-01T09:41:48;4.93;67.12
71177;DHT22;58877;51.992;4.504;2023-03-01T09:44:39;4.92;64.76
71177;DHT22;58877;51.992;4.504;2023-03-01T09:47:16;5.02;65.23
71177;DHT22;58877;51.992;4.504;2023-03-01T09:50:12;5.03;64.43
71177;DHT22;58877;51.992;4.504;2023-03-01T09:55:23;5.29;64.37
71177;DHT22;58877;51.992;4.504;2023-03-01T10:00:37;5.47;62.60
71177;DHT22;58877;51.992;4.504;2023-03-01T10:05:57;5.44;62.77
71177;DHT22;58877;51.992;4.504;2023-03-01T10:11:38;5.54;60.68
71177;DHT22;58877;51.992;4.504;2023-03-01T10:16:58;5.63;60.38
71177;DHT22;58877;51.992;4.504;2023-03-01T10:19:40;5.78;60.59
71177;DHT22;58877;51.992;4.504;2023-03-01T10:22:20;5.78;58.92
71177;DHT22;58877;51.992;4.504;2023-03-01T10:24:58;5.81;59.33
71177;DHT22;58877;51.992;4.504;2023-03-01T10:27:39;5.80;57.89
71177;DHT22;58877;51.992;4.504;2023-03-01T10:32:35;5.71;58.75
71177;DHT22;58877;51.992;4.504;2023-03-01T10:35:24;5.71;58.31
71177;DHT22;58877;51.992;4.504;2023-03-01T10:40:31;6.12;57.70
71177;DHT22;58877;51.992;4.504;2023-03-01T10:42:59;6.26;56.32
71177;DHT22;58877;51.992;4.504;2023-03-01T10:48:23;6.46;57.36
71177;DHT22;58877;51.992;4.504;2023-03-01T10:53:37;6.57;57.24
71177;DHT22;58877;51.992;4.504;2023-03-01T10:56:08;6.66;56.92
71177;DHT22;58877;51.992;4.504;2023-03-01T10:58:37;6.79;57.70
71177;DHT22;58877;51.992;4.504;2023-03-01T11:01:06;6.82;57.63
71177;DHT22;58877;51.992;4.504;2023-03-01T11:06:34;7.00;56.18
71177;DHT22;58877;51.992;4.504;2023-03-01T11:09:20;7.04;56.39
71177;DHT22;58877;51.992;4.504;2023-03-01T11:11:52;7.20;56.12
71177;DHT22;58877;51.992;4.504;2023-03-01T11:16:47;7.31;55.75
71177;DHT22;58877;51.992;4.504;2023-03-01T11:19:17;7.28;55.77
71177;DHT22;58877;51.992;4.504;2023-03-01T11:22:21;6.97;54.92
71177;DHT22;58877;51.992;4.504;2023-03-01T11:24:52;6.90;56.14
71177;DHT22;58877;51.992;4.504;2023-03-01T11:27:31;6.97;56.30
71177;DHT22;58877;51.992;4.504;2023-03-01T11:30:29;7.16;56.04
71177;DHT22;58877;51.992;4.504;2023-03-01T11:38:26;7.20;56.25
71177;DHT22;58877;51.992;4.504;2023-03-01T11:41:08;7.04;55.71
71177;DHT22;58877;51.992;4.504;2023-03-01T11:44:23;7.04;54.44
71177;DHT22;58877;51.992;4.504;2023-03-01T12:35:58;7.70;53.76
71177;DHT22;58877;51.992;4.504;2023-03-01T12:46:33;8.23;52.35
71177;DHT22;58877;51.992;4.504;2023-03-01T12:51:40;8.50;51.33
71177;DHT22;58877;51.992;4.504;2023-03-01T12:54:16;8.17;50.94
71177;DHT22;58877;51.992;4.504;2023-03-01T12:56:46;8.36;51.54
71177;DHT22;58877;51.992;4.504;2023-03-01T12:59:26;8.43;52.48
71177;DHT22;58877;51.992;4.504;2023-03-01T13:02:42;8.60;51.38
71177;DHT22;58877;51.992;4.504;2023-03-01T13:07:49;8.52;51.63
71177;DHT22;58877;51.992;4.504;2023-03-01T13:20:19;8.60;47.23
71177;DHT22;58877;51.992;4.504;2023-03-01T13:22:47;8.42;48.25
71177;DHT22;58877;51.992;4.504;2023-03-01T13:25:18;8.35;48.75
71177;DHT22;58877;51.992;4.504;2023-03-01T13:27:46;8.49;49.06
71177;DHT22;58877;51.992;4.504;2023-03-01T13:35:49;8.91;47.27
71177;DHT22;58877;51.992;4.504;2023-03-01T13:41:04;8.90;47.62
71177;DHT22;58877;51.992;4.504;2023-03-01T13:43:42;8.85;46.86
71177;DHT22;58877;51.992;4.504;2023-03-01T13:46:23;8.88;48.13
71177;DHT22;58877;51.992;4.504;2023-03-01T13:48:54;9.05;47.54
71177;DHT22;58877;51.992;4.504;2023-03-01T13:51:30;9.07;46.72
71177;DHT22;58877;51.992;4.504;2023-03-01T13:53:58;9.07;46.78
71177;DHT22;58877;51.992;4.504;2023-03-01T13:56:34;9.20;47.34
71177;DHT22;58877;51.992;4.504;2023-03-01T14:01:37;9.46;46.53
71177;DHT22;58877;51.992;4.504;2023-03-01T14:04:20;9.48;46.23
71177;DHT22;58877;51.992;4.504;2023-03-01T14:06:46;9.49;46.58
71177;DHT22;58877;51.992;4.504;2023-03-01T14:09:22;9.39;44.86
71177;DHT22;58877;51.992;4.504;2023-03-01T14:12:47;9.36;45.66
71177;DHT22;58877;51.992;4.504;2023-03-01T14:15:18;9.39;45.07
71177;DHT22;58877;51.992;4.504;2023-03-01T14:18:10;9.39;46.01
71177;DHT22;58877;51.992;4.504;2023-03-01T14:20:42;9.10;44.61
71177;DHT22;58877;51.992;4.504;2023-03-01T14:23:13;8.77;45.01
71177;DHT22;58877;51.992;4.504;2023-03-01T14:25:50;8.91;46.48
71177;DHT22;58877;51.992;4.504;2023-03-01T14:28:24;9.04;46.15
71177;DHT22;58877;51.992;4.504;2023-03-01T14:30:59;9.18;45.75
71177;DHT22;58877;51.992;4.504;2023-03-01T14:33:34;9.35;46.18
71177;DHT22;58877;51.992;4.504;2023-03-01T14:36:10;9.41;46.40
71177;DHT22;58877;51.992;4.504;2023-03-01T14:38:43;9.58;45.80
71177;DHT22;58877;51.992;4.504;2023-03-01T14:41:20;9.24;46.45
71177;DHT22;58877;51.992;4.504;2023-03-01T14:43:50;9.34;45.58
71177;DHT22;58877;51.992;4.504;2023-03-01T14:46:24;9.66;45.78
71177;DHT22;58877;51.992;4.504;2023-03-01T14:48:56;9.71;45.18
71177;DHT22;58877;51.992;4.504;2023-03-01T14:51:24;9.66;45.39
71177;DHT22;58877;51.992;4.504;2023-03-01T14:53:51;9.59;43.25
71177;DHT22;58877;51.992;4.504;2023-03-01T14:56:17;9.31;43.70
71177;DHT22;58877;51.992;4.504;2023-03-01T14:58:44;9.11;44.19
71177;DHT22;58877;51.992;4.504;2023-03-01T15:01:17;9.62;45.14
71177;DHT22;58877;51.992;4.504;2023-03-01T15:03:48;10.63;42.65
71177;DHT22;58877;51.992;4.504;2023-03-01T15:06:18;12.10;39.03
71177;DHT22;58877;51.992;4.504;2023-03-01T15:08:47;13.12;37.05
71177;DHT22;58877;51.992;4.504;2023-03-01T15:13:40;13.38;34.88
71177;DHT22;58877;51.992;4.504;2023-03-01T15:16:07;13.65;34.79
71177;DHT22;58877;51.992;4.504;2023-03-01T15:18:36;13.56;34.89
71177;DHT22;58877;51.992;4.504;2023-03-01T15:21:32;13.43;36.55
71177;DHT22;58877;51.992;4.504;2023-03-01T15:26:56;12.67;37.30
71177;DHT22;58877;51.992;4.504;2023-03-01T15:29:29;13.46;35.47
71177;DHT22;58877;51.992;4.504;2023-03-01T15:34:32;14.11;33.93
71177;DHT22;58877;51.992;4.504;2023-03-01T15:37:00;13.91;34.63
71177;DHT22;58877;51.992;4.504;2023-03-01T15:39:42;14.13;34.47
71177;DHT22;58877;51.992;4.504;2023-03-01T15:44:39;13.34;34.18
71177;DHT22;58877;51.992;4.504;2023-03-01T15:47:29;12.91;36.13
71177;DHT22;58877;51.992;4.504;2023-03-01T15:49:57;13.23;36.13
71177;DHT22;58877;51.992;4.504;2023-03-01T15:52:28;12.53;38.13
71177;DHT22;58877;51.992;4.504;2023-03-01T15:54:59;12.58;39.50
71177;DHT22;58877;51.992;4.504;2023-03-01T15:57:26;12.95;37.96
71177;DHT22;58877;51.992;4.504;2023-03-01T15:59:52;11.83;40.23
71177;DHT22;58877;51.992;4.504;2023-03-01T16:02:18;11.69;41.00
71177;DHT22;58877;51.992;4.504;2023-03-01T16:04:47;11.77;40.67
71177;DHT22;58877;51.992;4.504;2023-03-01T16:07:15;11.83;41.44
71177;DHT22;58877;51.992;4.504;2023-03-01T16:09:41;12.17;40.68
71177;DHT22;58877;51.992;4.504;2023-03-01T16:12:14;11.32;41.31
71177;DHT22;58877;51.992;4.504;2023-03-01T16:14:40;11.21;42.71
71177;DHT22;58877;51.992;4.504;2023-03-01T16:17:06;10.92;42.99
71177;DHT22;58877;51.992;4.504;2023-03-01T16:19:33;10.51;43.46
71177;DHT22;58877;51.992;4.504;2023-03-01T16:21:58;10.32;44.80
71177;DHT22;58877;51.992;4.504;2023-03-01T16:24:24;9.66;46.02
71177;DHT22;58877;51.992;4.504;2023-03-01T16:26:53;8.91;47.85
71177;DHT22;58877;51.992;4.504;2023-03-01T16:29:18;8.54;49.51
71177;DHT22;58877;51.992;4.504;2023-03-01T16:31:44;8.36;49.79
71177;DHT22;58877;51.992;4.504;2023-03-01T16:34:11;8.25;50.77
71177;DHT22;58877;51.992;4.504;2023-03-01T16:36:36;8.33;50.79
71177;DHT22;58877;51.992;4.504;2023-03-01T16:39:03;8.33;50.83
71177;DHT22;58877;51.992;4.504;2023-03-01T16:41:29;8.29;51.00
71177;DHT22;58877;51.992;4.504;2023-03-01T16:43:54;8.28;50.72
71177;DHT22;58877;51.992;4.504;2023-03-01T16:46:27;8.67;50.28
71177;DHT22;58877;51.992;4.504;2023-03-01T16:48:54;8.92;49.31
71177;DHT22;58877;51.992;4.504;2023-03-01T16:51:20;8.85;49.17
71177;DHT22;58877;51.992;4.504;2023-03-01T16:53:46;8.40;50.71
71177;DHT22;58877;51.992;4.504;2023-03-01T16:56:12;8.15;51.62
71177;DHT22;58877;51.992;4.504;2023-03-01T16:58:40;7.81;52.11
71177;DHT22;58877;51.992;4.504;2023-03-01T17:01:11;7.62;52.61
71177;DHT22;58877;51.992;4.504;2023-03-01T17:03:38;7.52;52.74
71177;DHT22;58877;51.992;4.504;2023-03-01T17:06:07;7.47;53.55
71177;DHT22;58877;51.992;4.504;2023-03-01T17:08:34;7.37;53.32
71177;DHT22;58877;51.992;4.504;2023-03-01T17:11:11;7.16;54.09
71177;DHT22;58877;51.992;4.504;2023-03-01T17:13:37;7.21;54.21
71177;DHT22;58877;51.992;4.504;2023-03-01T17:16:08;7.17;54.57
71177;DHT22;58877;51.992;4.504;2023-03-01T17:18:35;7.01;54.67
71177;DHT22;58877;51.992;4.504;2023-03-01T17:21:01;6.93;55.17
71177;DHT22;58877;51.992;4.504;2023-03-01T17:23:28;6.95;55.45
71177;DHT22;58877;51.992;4.504;2023-03-01T17:25:54;6.99;55.48
71177;DHT22;58877;51.992;4.504;2023-03-01T17:28:22;6.90;55.55
71177;DHT22;58877;51.992;4.504;2023-03-01T17:30:48;6.90;55.87
71177;DHT22;58877;51.992;4.504;2023-03-01T17:33:14;6.87;56.37
71177;DHT22;58877;51.992;4.504;2023-03-01T17:35:39;6.75;56.62
71177;DHT22;58877;51.992;4.504;2023-03-01T17:38:05;6.71;56.80
71177;DHT22;58877;51.992;4.504;2023-03-01T17:40:32;6.56;56.97
71177;DHT22;58877;51.992;4.504;2023-03-01T17:42:58;6.61;57.29
71177;DHT22;58877;51.992;4.504;2023-03-01T17:45:24;6.53;57.30
71177;DHT22;58877;51.992;4.504;2023-03-01T17:47:49;6.42;57.68
71177;DHT22;58877;51.992;4.504;2023-03-01T17:50:15;6.31;57.90
71177;DHT22;58877;51.992;4.504;2023-03-01T17:52:41;6.21;58.29
71177;DHT22;58877;51.992;4.504;2023-03-01T17:55:07;6.17;58.47
71177;DHT22;58877;51.992;4.504;2023-03-01T17:57:33;6.17;58.55
71177;DHT22;58877;51.992;4.504;2023-03-01T17:59:59;6.10;58.87
71177;DHT22;58877;51.992;4.504;2023-03-01T18:02:25;6.07;58.99
71177;DHT22;58877;51.992;4.504;2023-03-01T18:04:56;6.10;59.00
71177;DHT22;58877;51.992;4.504;2023-03-01T18:07:25;6.05;59.22
71177;DHT22;58877;51.992;4.504;2023-03-01T18:09:51;6.01;59.43
71177;DHT22;58877;51.992;4.504;2023-03-01T18:12:16;6.04;59.32
71177;DHT22;58877;51.992;4.504;2023-03-01T18:14:42;5.93;59.52
71177;DHT22;58877;51.992;4.504;2023-03-01T18:17:09;5.94;59.67
71177;DHT22;58877;51.992;4.504;2023-03-01T18:19:40;5.87;59.82